sensor_id;sensor_type;location;lat;lon;timestamp;temperature;humidity
26272;DHT22;13997;48.902;12.472;2022-07-29T02:33:12;512.90;2380.80
26272;DHT22;13997;48.902;12.472;2022-07-29T02:35:40;487.00;2380.80
26272;DHT22;13997;48.902;12.472;2022-07-29T02:38:07;486.90;2380.80
26272;DHT22;13997;48.902;12.472;2022-07-29T02:40:53;486.90;2380.80
26272;DHT22;13997;48.902;12.472;2022-07-29T02:43:21;486.90;2380.80
26272;DHT22;13997;48.902;12.472;2022-07-29T02:45:50;486.90;2380.80
26272;DHT22;13997;48.902;12.472;2022-07-29T02:48:18;486.90;2380.80
26272;DHT22;13997;48.902;12.472;2022-07-29T02:50:53;486.90;2380.80
26272;DHT22;13997;48.902;12.472;2022-07-29T02:53:23;486.90;2380.80
26272;DHT22;13997;48.902;12.472;2022-07-29T02:55:59;487.00;2380.80
26272;DHT22;13997;48.902;12.472;2022-07-29T02:58:54;486.90;2380.80
26272;DHT22;13997;48.902;12.472;2022-07-29T03:01:23;486.90;2380.80
26272;DHT22;13997;48.902;12.472;2022-07-29T06:34:35;486.80;2380.80
26272;DHT22;13997;48.902;12.472;2022-07-29T06:37:05;538.30;2406.40
26272;DHT22;13997;48.902;12.472;2022-07-29T06:41:57;538.20;2406.40
26272;DHT22;13997;48.902;12.472;2022-07-29T06:44:22;538.40;2406.40
26272;DHT22;13997;48.902;12.472;2022-07-29T06:46:48;563.20;2432.00
26272;DHT22;13997;48.902;12.472;2022-07-29T06:49:15;563.30;2432.00
26272;DHT22;13997;48.902;12.472;2022-07-29T06:51:41;563.30;2432.00
26272;DHT22;13997;48.902;12.472;2022-07-29T06:54:06;563.40;2432.00
26272;DHT22;13997;48.902;12.472;2022-07-29T06:56:34;563.40;2432.00
26272;DHT22;13997;48.902;12.472;2022-07-29T06:59:03;563.50;2432.00
26272;DHT22;13997;48.902;12.472;2022-07-29T07:01:28;563.50;2432.00
26272;DHT22;13997;48.902;12.472;2022-07-29T07:03:54;563.60;2432.00
26272;DHT22;13997;48.902;12.472;2022-07-29T07:06:19;563.60;2432.00
26272;DHT22;13997;48.902;12.472;2022-07-29T07:08:45;563.80;2432.00
26272;DHT22;13997;48.902;12.472;2022-07-29T07:11:11;563.90;2432.00
26272;DHT22;13997;48.902;12.472;2022-07-29T07:13:36;563.90;2432.00
26272;DHT22;13997;48.902;12.472;2022-07-29T07:16:02;564.00;2432.00
26272;DHT22;13997;48.902;12.472;2022-07-29T07:18:28;588.80;2432.00
26272;DHT22;13997;48.902;12.472;2022-07-29T07:20:53;588.80;2432.00
26272;DHT22;13997;48.902;12.472;2022-07-29T07:23:19;588.90;2432.00
26272;DHT22;13997;48.902;12.472;2022-07-29T07:25:44;588.90;2432.00
26272;DHT22;13997;48.902;12.472;2022-07-29T07:28:10;589.00;2432.00
26272;DHT22;13997;48.902;12.472;2022-07-29T07:30:36;589.10;2432.00
26272;DHT22;13997;48.902;12.472;2022-07-29T07:33:02;589.10;2432.00
26272;DHT22;13997;48.902;12.472;2022-07-29T07:35:28;589.10;2432.00
26272;DHT22;13997;48.902;12.472;2022-07-29T07:37:55;589.10;2432.00
26272;DHT22;13997;48.902;12.472;2022-07-29T07:40:21;589.30;2432.00
26272;DHT22;13997;48.902;12.472;2022-07-29T07:42:46;589.30;2432.00
26272;DHT22;13997;48.902;12.472;2022-07-29T07:45:12;589.50;2432.00
26272;DHT22;13997;48.902;12.472;2022-07-29T07:47:38;589.70;2432.00
26272;DHT22;13997;48.902;12.472;2022-07-29T07:50:06;614.50;2432.00
26272;DHT22;13997;48.902;12.472;2022-07-29T07:52:32;614.40;2432.00
26272;DHT22;13997;48.902;12.472;2022-07-29T07:54:58;614.50;2432.00
26272;DHT22;13997;48.902;12.472;2022-07-29T07:57:24;614.60;2432.00
26272;DHT22;13997;48.902;12.472;2022-07-29T07:59:50;614.70;2432.00
26272;DHT22;13997;48.902;12.472;2022-07-29T08:02:15;614.70;2432.00
26272;DHT22;13997;48.902;12.472;2022-07-29T08:04:41;614.80;2432.00
26272;DHT22;13997;48.902;12.472;2022-07-29T08:09:34;615.10;2432.00
26272;DHT22;13997;48.902;12.472;2022-07-29T08:16:55;615.30;2432.00
26272;DHT22;13997;48.902;12.472;2022-07-29T08:19:20;640.40;2432.00
26272;DHT22;13997;48.902;12.472;2022-07-29T08:21:46;640.40;2432.00
26272;DHT22;13997;48.902;12.472;2022-07-29T08:24:11;640.30;2432.00
26272;DHT22;13997;48.902;12.472;2022-07-29T08:26:56;640.40;2432.00
26272;DHT22;13997;48.902;12.472;2022-07-29T08:29:21;640.40;2432.00
26272;DHT22;13997;48.902;12.472;2022-07-29T08:31:47;640.50;2432.00
26272;DHT22;13997;48.902;12.472;2022-07-29T08:34:13;640.60;2432.00
26272;DHT22;13997;48.902;12.472;2022-07-29T08:36:38;640.70;2432.00
26272;DHT22;13997;48.902;12.472;2022-07-29T08:39:04;640.90;2432.00
26272;DHT22;13997;48.902;12.472;2022-07-29T08:48:49;640.90;2432.00
26272;DHT22;13997;48.902;12.472;2022-07-29T08:51:17;665.90;2432.00
26272;DHT22;13997;48.902;12.472;2022-07-29T08:53:44;666.10;2432.00
26272;DHT22;13997;48.902;12.472;2022-07-29T08:56:16;666.20;2432.00
26272;DHT22;13997;48.902;12.472;2022-07-29T09:03:36;666.40;2432.00
26272;DHT22;13997;48.902;12.472;2022-07-29T09:21:03;691.40;2432.00
26272;DHT22;13997;48.902;12.472;2022-07-29T09:26:35;716.90;2432.00
26272;DHT22;13997;48.902;12.472;2022-07-29T09:29:11;716.90;2432.00
26272;DHT22;13997;48.902;12.472;2022-07-29T09:31:39;716.90;2432.00
26272;DHT22;13997;48.902;12.472;2022-07-29T09:34:06;717.00;2432.00
26272;DHT22;13997;48.902;12.472;2022-07-29T09:36:42;717.20;2432.00
26272;DHT22;13997;48.902;12.472;2022-07-29T09:39:08;717.30;2432.00
26272;DHT22;13997;48.902;12.472;2022-07-29T09:41:48;717.00;2432.00
26272;DHT22;13997;48.902;12.472;2022-07-29T09:44:14;717.20;2432.00
26272;DHT22;13997;48.902;12.472;2022-07-29T09:46:51;717.30;2432.00
26272;DHT22;13997;48.902;12.472;2022-07-29T09:49:17;717.40;2432.00
26272;DHT22;13997;48.902;12.472;2022-07-29T09:51:43;717.40;2432.00
26272;DHT22;13997;48.902;12.472;2022-07-29T09:54:24;717.50;2432.00
26272;DHT22;13997;48.902;12.472;2022-07-29T09:56:52;717.60;2432.00
26272;DHT22;13997;48.902;12.472;2022-07-29T09:59:17;717.60;2432.00
26272;DHT22;13997;48.902;12.472;2022-07-29T10:01:44;717.70;2432.00
26272;DHT22;13997;48.902;12.472;2022-07-29T10:04:10;742.50;2432.00
26272;DHT22;13997;48.902;12.472;2022-07-29T10:06:55;717.60;2406.40
26272;DHT22;13997;48.902;12.472;2022-07-29T10:09:21;717.60;2432.00
26272;DHT22;13997;48.902;12.472;2022-07-29T10:12:12;717.60;2380.80
26272;DHT22;13997;48.902;12.472;2022-07-29T10:14:40;717.60;2304.00
26272;DHT22;13997;48.902;12.472;2022-07-29T10:17:07;717.60;2355.20
26272;DHT22;13997;48.902;12.472;2022-07-29T10:19:35;742.50;2406.40
26272;DHT22;13997;48.902;12.472;2022-07-29T10:22:04;742.60;2355.20
26272;DHT22;13997;48.902;12.472;2022-07-29T10:24:31;742.70;2304.00
26272;DHT22;13997;48.902;12.472;2022-07-29T10:45:22;743.00;2252.80
26272;DHT22;13997;48.902;12.472;2022-07-29T10:47:47;743.10;2176.00
26272;DHT22;13997;48.902;12.472;2022-07-29T10:50:13;743.20;2176.00
26272;DHT22;13997;48.902;12.472;2022-07-29T10:52:58;743.20;2124.80
26272;DHT22;13997;48.902;12.472;2022-07-29T10:55:31;768.00;2073.60
26272;DHT22;13997;48.902;12.472;2022-07-29T11:00:37;768.00;2124.80
26272;DHT22;13997;48.902;12.472;2022-07-29T11:03:03;768.10;2150.40
26272;DHT22;13997;48.902;12.472;2022-07-29T11:05:28;768.00;2150.40
26272;DHT22;13997;48.902;12.472;2022-07-29T11:10:44;768.10;2099.20
26272;DHT22;13997;48.902;12.472;2022-07-29T11:13:10;768.10;2099.20
26272;DHT22;13997;48.902;12.472;2022-07-29T11:15:55;768.20;2073.60
26272;DHT22;13997;48.902;12.472;2022-07-29T11:18:21;768.40;2150.40
26272;DHT22;13997;48.902;12.472;2022-07-29T11:20:51;768.30;2099.20
26272;DHT22;13997;48.902;12.472;2022-07-29T11:23:33;768.40;2099.20
26272;DHT22;13997;48.902;12.472;2022-07-29T11:26:19;768.40;2124.80
26272;DHT22;13997;48.902;12.472;2022-07-29T11:29:02;768.60;2099.20
26272;DHT22;13997;48.902;12.472;2022-07-29T11:45:00;768.10;2073.60
26272;DHT22;13997;48.902;12.472;2022-07-29T11:47:28;768.10;2150.40
26272;DHT22;13997;48.902;12.472;2022-07-29T11:49:56;768.30;2099.20
26272;DHT22;13997;48.902;12.472;2022-07-29T11:52:35;768.40;2124.80
26272;DHT22;13997;48.902;12.472;2022-07-29T11:55:04;768.60;2022.40
26272;DHT22;13997;48.902;12.472;2022-07-29T11:57:30;768.60;2048.00
26272;DHT22;13997;48.902;12.472;2022-07-29T11:59:57;768.60;2048.00
26272;DHT22;13997;48.902;12.472;2022-07-29T12:02:23;768.40;2048.00
26272;DHT22;13997;48.902;12.472;2022-07-29T12:04:56;768.40;2073.60
26272;DHT22;13997;48.902;12.472;2022-07-29T12:07:31;768.40;2099.20
26272;DHT22;13997;48.902;12.472;2022-07-29T12:09:58;768.60;2073.60
26272;DHT22;13997;48.902;12.472;2022-07-29T12:12:24;768.40;2073.60
26272;DHT22;13997;48.902;12.472;2022-07-29T12:14:50;768.40;2048.00
26272;DHT22;13997;48.902;12.472;2022-07-29T12:17:29;768.40;2099.20
26272;DHT22;13997;48.902;12.472;2022-07-29T12:19:56;768.40;2048.00
26272;DHT22;13997;48.902;12.472;2022-07-29T12:22:33;768.40;1996.80
26272;DHT22;13997;48.902;12.472;2022-07-29T12:25:08;768.40;2022.40
26272;DHT22;13997;48.902;12.472;2022-07-29T12:27:35;768.10;1971.20
26272;DHT22;13997;48.902;12.472;2022-07-29T12:30:06;768.00;1996.80
26272;DHT22;13997;48.902;12.472;2022-07-29T12:35:19;768.10;1971.20
26272;DHT22;13997;48.902;12.472;2022-07-29T12:37:47;768.00;2048.00
26272;DHT22;13997;48.902;12.472;2022-07-29T12:40:15;743.30;2048.00
26272;DHT22;13997;48.902;12.472;2022-07-29T12:43:05;768.00;2048.00
26272;DHT22;13997;48.902;12.472;2022-07-29T12:45:32;768.10;2022.40
26272;DHT22;13997;48.902;12.472;2022-07-29T12:47:58;768.10;2048.00
26272;DHT22;13997;48.902;12.472;2022-07-29T12:50:24;768.00;2073.60
26272;DHT22;13997;48.902;12.472;2022-07-29T12:52:50;743.20;2022.40
26272;DHT22;13997;48.902;12.472;2022-07-29T12:55:16;743.20;2073.60
26272;DHT22;13997;48.902;12.472;2022-07-29T12:57:47;743.30;2048.00
26272;DHT22;13997;48.902;12.472;2022-07-29T13:00:14;743.30;2073.60
26272;DHT22;13997;48.902;12.472;2022-07-29T13:02:41;743.30;1996.80
26272;DHT22;13997;48.902;12.472;2022-07-29T13:05:09;768.10;1971.20
26272;DHT22;13997;48.902;12.472;2022-07-29T13:07:36;768.20;2022.40
26272;DHT22;13997;48.902;12.472;2022-07-29T13:10:19;768.30;1945.60
26272;DHT22;13997;48.902;12.472;2022-07-29T13:13:08;768.60;1945.60
26272;DHT22;13997;48.902;12.472;2022-07-29T13:15:35;768.30;1996.80
26272;DHT22;13997;48.902;12.472;2022-07-29T13:18:01;768.30;1996.80
26272;DHT22;13997;48.902;12.472;2022-07-29T13:20:28;768.50;1996.80
26272;DHT22;13997;48.902;12.472;2022-07-29T13:22:58;768.60;1971.20
26272;DHT22;13997;48.902;12.472;2022-07-29T13:25:32;768.60;1945.60
26272;DHT22;13997;48.902;12.472;2022-07-29T13:27:59;768.60;1971.20
26272;DHT22;13997;48.902;12.472;2022-07-29T13:30:25;768.30;2022.40
26272;DHT22;13997;48.902;12.472;2022-07-29T13:32:51;768.40;1945.60
26272;DHT22;13997;48.902;12.472;2022-07-29T13:35:18;768.30;1945.60
26272;DHT22;13997;48.902;12.472;2022-07-29T13:37:44;768.10;2022.40
26272;DHT22;13997;48.902;12.472;2022-07-29T13:40:10;743.30;2022.40
26272;DHT22;13997;48.902;12.472;2022-07-29T13:42:36;743.00;2099.20
26272;DHT22;13997;48.902;12.472;2022-07-29T13:45:02;742.80;2201.60
26272;DHT22;13997;48.902;12.472;2022-07-29T13:47:28;742.70;2227.20
26272;DHT22;13997;48.902;12.472;2022-07-29T13:49:54;742.60;2176.00
26272;DHT22;13997;48.902;12.472;2022-07-29T13:52:20;742.70;2201.60
26272;DHT22;13997;48.902;12.472;2022-07-29T13:54:46;742.80;2150.40
26272;DHT22;13997;48.902;12.472;2022-07-29T13:57:12;742.80;2150.40
26272;DHT22;13997;48.902;12.472;2022-07-29T13:59:40;742.80;2150.40
26272;DHT22;13997;48.902;12.472;2022-07-29T14:02:06;742.90;2099.20
26272;DHT22;13997;48.902;12.472;2022-07-29T14:04:32;743.00;2073.60
26272;DHT22;13997;48.902;12.472;2022-07-29T14:06:57;743.10;2124.80
26272;DHT22;13997;48.902;12.472;2022-07-29T14:09:23;743.00;2048.00
26272;DHT22;13997;48.902;12.472;2022-07-29T14:11:48;743.00;2073.60
26272;DHT22;13997;48.902;12.472;2022-07-29T14:14:15;742.80;2099.20
26272;DHT22;13997;48.902;12.472;2022-07-29T14:16:41;742.80;2124.80
26272;DHT22;13997;48.902;12.472;2022-07-29T14:19:06;742.70;2099.20
26272;DHT22;13997;48.902;12.472;2022-07-29T14:21:32;742.70;2099.20
26272;DHT22;13997;48.902;12.472;2022-07-29T14:23:58;742.90;2124.80
26272;DHT22;13997;48.902;12.472;2022-07-29T14:26:23;743.00;2073.60
26272;DHT22;13997;48.902;12.472;2022-07-29T14:28:49;743.00;2073.60
26272;DHT22;13997;48.902;12.472;2022-07-29T14:31:15;742.70;2073.60
26272;DHT22;13997;48.902;12.472;2022-07-29T14:33:41;742.60;2099.20
26272;DHT22;13997;48.902;12.472;2022-07-29T14:36:07;742.40;2099.20
26272;DHT22;13997;48.902;12.472;2022-07-29T14:38:35;717.70;2099.20
26272;DHT22;13997;48.902;12.472;2022-07-29T16:40:02;691.40;1971.20
26272;DHT22;13997;48.902;12.472;2022-07-29T16:42:28;691.30;1971.20
26272;DHT22;13997;48.902;12.472;2022-07-29T16:44:53;691.30;1971.20
26272;DHT22;13997;48.902;12.472;2022-07-29T16:47:19;691.20;1971.20
26272;DHT22;13997;48.902;12.472;2022-07-29T16:49:44;666.50;1971.20
26272;DHT22;13997;48.902;12.472;2022-07-29T16:52:10;666.50;1920.00
26272;DHT22;13997;48.902;12.472;2022-07-29T16:54:35;666.40;1996.80
26272;DHT22;13997;48.902;12.472;2022-07-29T16:57:02;666.20;2048.00
26272;DHT22;13997;48.902;12.472;2022-07-29T16:59:28;666.20;2048.00
26272;DHT22;13997;48.902;12.472;2022-07-29T17:01:54;666.10;2073.60
26272;DHT22;13997;48.902;12.472;2022-07-29T17:04:20;666.10;2099.20
26272;DHT22;13997;48.902;12.472;2022-07-29T17:06:46;666.00;2150.40
26272;DHT22;13997;48.902;12.472;2022-07-29T17:09:13;665.90;2201.60
26272;DHT22;13997;48.902;12.472;2022-07-29T17:11:40;665.90;2227.20
26272;DHT22;13997;48.902;12.472;2022-07-29T17:14:07;665.80;2252.80
26272;DHT22;13997;48.902;12.472;2022-07-29T17:16:32;665.80;2278.40
26272;DHT22;13997;48.902;12.472;2022-07-29T17:18:58;665.80;2329.60
26272;DHT22;13997;48.902;12.472;2022-07-29T17:21:24;665.70;2355.20
26272;DHT22;13997;48.902;12.472;2022-07-29T17:23:51;665.60;2406.40
26272;DHT22;13997;48.902;12.472;2022-07-29T17:26:17;665.60;2432.00
26272;DHT22;13997;48.902;12.472;2022-07-29T17:28:43;640.90;2432.00
26272;DHT22;13997;48.902;12.472;2022-07-29T17:31:10;640.90;2432.00
26272;DHT22;13997;48.902;12.472;2022-07-29T17:33:36;640.90;2432.00
26272;DHT22;13997;48.902;12.472;2022-07-29T17:36:01;640.90;2432.00
26272;DHT22;13997;48.902;12.472;2022-07-29T17:38:45;640.90;2432.00
26272;DHT22;13997;48.902;12.472;2022-07-29T17:41:11;640.90;2432.00
26272;DHT22;13997;48.902;12.472;2022-07-29T17:43:37;640.80;2432.00
26272;DHT22;13997;48.902;12.472;2022-07-29T17:46:02;640.80;2432.00
26272;DHT22;13997;48.902;12.472;2022-07-29T17:48:28;640.70;2432.00
26272;DHT22;13997;48.902;12.472;2022-07-29T17:50:55;640.70;2432.00
26272;DHT22;13997;48.902;12.472;2022-07-29T17:53:21;640.70;2432.00
26272;DHT22;13997;48.902;12.472;2022-07-29T17:55:47;640.60;2432.00
26272;DHT22;13997;48.902;12.472;2022-07-29T17:58:14;640.40;2432.00
26272;DHT22;13997;48.902;12.472;2022-07-29T18:00:40;640.30;2432.00
26272;DHT22;13997;48.902;12.472;2022-07-29T18:03:06;640.30;2432.00
26272;DHT22;13997;48.902;12.472;2022-07-29T18:05:32;640.20;2432.00
26272;DHT22;13997;48.902;12.472;2022-07-29T18:07:57;640.10;2380.80
26272;DHT22;13997;48.902;12.472;2022-07-29T18:10:23;640.10;2406.40
26272;DHT22;13997;48.902;12.472;2022-07-29T18:12:49;640.00;2380.80
26272;DHT22;13997;48.902;12.472;2022-07-29T18:15:15;640.00;2355.20
26272;DHT22;13997;48.902;12.472;2022-07-29T18:17:41;615.30;2329.60
26272;DHT22;13997;48.902;12.472;2022-07-29T18:20:06;615.20;2380.80
26272;DHT22;13997;48.902;12.472;2022-07-29T18:22:32;615.20;2329.60
26272;DHT22;13997;48.902;12.472;2022-07-29T18:24:58;615.10;2355.20
26272;DHT22;13997;48.902;12.472;2022-07-29T18:27:24;615.00;2355.20
26272;DHT22;13997;48.902;12.472;2022-07-29T18:29:53;615.00;2355.20
26272;DHT22;13997;48.902;12.472;2022-07-29T18:32:20;614.90;2380.80
26272;DHT22;13997;48.902;12.472;2022-07-29T18:34:46;614.80;2406.40
26272;DHT22;13997;48.902;12.472;2022-07-29T18:37:12;614.80;2406.40
26272;DHT22;13997;48.902;12.472;2022-07-29T18:39:38;614.70;2432.00
26272;DHT22;13997;48.902;12.472;2022-07-29T18:42:03;614.70;2432.00
26272;DHT22;13997;48.902;12.472;2022-07-29T18:44:29;614.60;2432.00
26272;DHT22;13997;48.902;12.472;2022-07-29T18:46:55;614.50;2432.00
26272;DHT22;13997;48.902;12.472;2022-07-29T18:49:21;614.50;2432.00
26272;DHT22;13997;48.902;12.472;2022-07-29T18:51:47;614.50;2432.00
26272;DHT22;13997;48.902;12.472;2022-07-29T18:54:13;614.50;2432.00
26272;DHT22;13997;48.902;12.472;2022-07-29T18:56:38;614.40;2432.00
26272;DHT22;13997;48.902;12.472;2022-07-29T18:59:04;589.70;2432.00
26272;DHT22;13997;48.902;12.472;2022-07-29T19:01:30;589.70;2432.00
26272;DHT22;13997;48.902;12.472;2022-07-29T19:03:55;589.70;2432.00
26272;DHT22;13997;48.902;12.472;2022-07-29T19:06:21;589.70;2432.00
26272;DHT22;13997;48.902;12.472;2022-07-29T19:08:47;589.60;2432.00
26272;DHT22;13997;48.902;12.472;2022-07-29T19:11:12;589.60;2432.00
26272;DHT22;13997;48.902;12.472;2022-07-29T19:13:38;589.60;2432.00
26272;DHT22;13997;48.902;12.472;2022-07-29T19:16:05;589.50;2432.00
26272;DHT22;13997;48.902;12.472;2022-07-29T19:18:30;589.50;2432.00
26272;DHT22;13997;48.902;12.472;2022-07-29T19:20:56;589.50;2432.00
26272;DHT22;13997;48.902;12.472;2022-07-29T19:23:21;589.40;2432.00
26272;DHT22;13997;48.902;12.472;2022-07-29T19:25:47;589.40;2432.00
26272;DHT22;13997;48.902;12.472;2022-07-29T19:28:13;589.40;2432.00
26272;DHT22;13997;48.902;12.472;2022-07-29T19:30:38;589.40;2432.00
26272;DHT22;13997;48.902;12.472;2022-07-29T19:33:05;589.30;2432.00
26272;DHT22;13997;48.902;12.472;2022-07-29T19:35:30;589.30;2432.00
26272;DHT22;13997;48.902;12.472;2022-07-29T19:37:58;589.20;2432.00
26272;DHT22;13997;48.902;12.472;2022-07-29T19:40:25;589.10;2432.00
26272;DHT22;13997;48.902;12.472;2022-07-29T19:42:52;589.10;2432.00
26272;DHT22;13997;48.902;12.472;2022-07-29T19:45:19;589.00;2432.00
26272;DHT22;13997;48.902;12.472;2022-07-29T19:47:45;588.90;2432.00
26272;DHT22;13997;48.902;12.472;2022-07-29T19:50:11;588.90;2432.00
26272;DHT22;13997;48.902;12.472;2022-07-29T19:52:37;588.80;2432.00
26272;DHT22;13997;48.902;12.472;2022-07-29T19:55:04;588.80;2432.00
26272;DHT22;13997;48.902;12.472;2022-07-29T19:57:30;564.10;2432.00
26272;DHT22;13997;48.902;12.472;2022-07-29T19:59:56;564.10;2432.00
26272;DHT22;13997;48.902;12.472;2022-07-29T20:02:21;564.10;2432.00
26272;DHT22;13997;48.902;12.472;2022-07-29T20:04:47;564.00;2432.00
26272;DHT22;13997;48.902;12.472;2022-07-29T20:07:13;564.00;2432.00
26272;DHT22;13997;48.902;12.472;2022-07-29T20:09:39;564.00;2432.00
26272;DHT22;13997;48.902;12.472;2022-07-29T20:12:07;563.90;2432.00
26272;DHT22;13997;48.902;12.472;2022-07-29T20:14:33;563.80;2432.00
26272;DHT22;13997;48.902;12.472;2022-07-29T20:16:58;563.80;2432.00
26272;DHT22;13997;48.902;12.472;2022-07-29T20:19:24;563.80;2432.00
26272;DHT22;13997;48.902;12.472;2022-07-29T20:21:50;563.80;2432.00
26272;DHT22;13997;48.902;12.472;2022-07-29T20:24:17;563.80;2432.00
26272;DHT22;13997;48.902;12.472;2022-07-29T20:26:43;563.80;2432.00
26272;DHT22;13997;48.902;12.472;2022-07-29T20:29:08;563.80;2432.00
26272;DHT22;13997;48.902;12.472;2022-07-29T20:31:34;563.80;2432.00
26272;DHT22;13997;48.902;12.472;2022-07-29T20:34:00;563.80;2432.00
26272;DHT22;13997;48.902;12.472;2022-07-29T20:36:26;563.80;2432.00
26272;DHT22;13997;48.902;12.472;2022-07-29T20:38:53;563.80;2432.00
26272;DHT22;13997;48.902;12.472;2022-07-29T20:41:19;563.80;2432.00
26272;DHT22;13997;48.902;12.472;2022-07-29T20:43:45;563.70;2432.00
26272;DHT22;13997;48.902;12.472;2022-07-29T20:46:10;563.70;2432.00
26272;DHT22;13997;48.902;12.472;2022-07-29T20:48:36;563.70;2432.00
26272;DHT22;13997;48.902;12.472;2022-07-29T20:51:03;563.70;2432.00
26272;DHT22;13997;48.902;12.472;2022-07-29T20:53:29;563.70;2432.00
26272;DHT22;13997;48.902;12.472;2022-07-29T20:55:54;563.60;2432.00
26272;DHT22;13997;48.902;12.472;2022-07-29T20:58:20;563.60;2432.00
26272;DHT22;13997;48.902;12.472;2022-07-29T21:00:46;563.60;2432.00
26272;DHT22;13997;48.902;12.472;2022-07-29T21:03:11;563.60;2432.00
26272;DHT22;13997;48.902;12.472;2022-07-29T21:05:37;563.50;2432.00
26272;DHT22;13997;48.902;12.472;2022-07-29T21:08:03;563.50;2432.00
26272;DHT22;13997;48.902;12.472;2022-07-29T21:10:29;563.50;2432.00
26272;DHT22;13997;48.902;12.472;2022-07-29T21:12:55;563.50;2432.00
26272;DHT22;13997;48.902;12.472;2022-07-29T21:15:24;563.40;2432.00
26272;DHT22;13997;48.902;12.472;2022-07-29T21:17:51;563.40;2432.00
26272;DHT22;13997;48.902;12.472;2022-07-29T21:20:25;563.40;2432.00
26272;DHT22;13997;48.902;12.472;2022-07-29T21:22:50;563.40;2432.00
26272;DHT22;13997;48.902;12.472;2022-07-29T21:25:20;563.40;2432.00
26272;DHT22;13997;48.902;12.472;2022-07-29T21:27:45;563.30;2432.00
26272;DHT22;13997;48.902;12.472;2022-07-29T21:30:30;563.30;2432.00
26272;DHT22;13997;48.902;12.472;2022-07-29T21:32:56;563.20;2432.00
26272;DHT22;13997;48.902;12.472;2022-07-29T21:35:21;563.20;2432.00
26272;DHT22;13997;48.902;12.472;2022-07-29T21:37:47;538.50;2406.40
26272;DHT22;13997;48.902;12.472;2022-07-29T21:40:12;538.30;2406.40
26272;DHT22;13997;48.902;12.472;2022-07-29T21:42:38;538.20;2406.40
26272;DHT22;13997;48.902;12.472;2022-07-29T21:45:05;538.10;2406.40
26272;DHT22;13997;48.902;12.472;2022-07-29T21:47:30;537.90;2406.40
26272;DHT22;13997;48.902;12.472;2022-07-29T21:50:02;537.80;2406.40
26272;DHT22;13997;48.902;12.472;2022-07-29T21:55:38;537.60;2406.40
26272;DHT22;13997;48.902;12.472;2022-07-29T21:58:17;512.90;2380.80
26272;DHT22;13997;48.902;12.472;2022-07-29T22:00:43;512.90;2380.80
26272;DHT22;13997;48.902;12.472;2022-07-29T22:03:09;512.80;2380.80
26272;DHT22;13997;48.902;12.472;2022-07-29T22:05:34;512.80;2380.80
26272;DHT22;13997;48.902;12.472;2022-07-29T22:08:00;512.80;2380.80
26272;DHT22;13997;48.902;12.472;2022-07-29T22:10:28;512.70;2380.80
26272;DHT22;13997;48.902;12.472;2022-07-29T22:12:56;512.60;2380.80
26272;DHT22;13997;48.902;12.472;2022-07-29T22:15:23;512.50;2380.80
26272;DHT22;13997;48.902;12.472;2022-07-29T22:17:49;512.50;2380.80
26272;DHT22;13997;48.902;12.472;2022-07-29T22:20:15;512.40;2380.80
26272;DHT22;13997;48.902;12.472;2022-07-29T22:22:40;512.40;2380.80
26272;DHT22;13997;48.902;12.472;2022-07-29T22:25:07;512.40;2380.80
26272;DHT22;13997;48.902;12.472;2022-07-29T22:27:32;512.30;2380.80
26272;DHT22;13997;48.902;12.472;2022-07-29T22:29:58;512.20;2380.80
26272;DHT22;13997;48.902;12.472;2022-07-29T22:32:24;512.20;2380.80
26272;DHT22;13997;48.902;12.472;2022-07-29T22:34:49;512.20;2380.80
26272;DHT22;13997;48.902;12.472;2022-07-29T22:37:15;512.20;2380.80
26272;DHT22;13997;48.902;12.472;2022-07-29T22:39:41;512.20;2380.80
26272;DHT22;13997;48.902;12.472;2022-07-29T22:42:06;512.30;2380.80
26272;DHT22;13997;48.902;12.472;2022-07-29T22:44:32;512.30;2380.80
26272;DHT22;13997;48.902;12.472;2022-07-29T22:46:59;512.30;2380.80
26272;DHT22;13997;48.902;12.472;2022-07-29T22:49:27;512.30;2380.80
26272;DHT22;13997;48.902;12.472;2022-07-29T22:51:54;512.30;2380.80
26272;DHT22;13997;48.902;12.472;2022-07-29T22:54:19;512.30;2380.80
26272;DHT22;13997;48.902;12.472;2022-07-29T22:56:46;512.30;2380.80
26272;DHT22;13997;48.902;12.472;2022-07-29T22:59:11;512.30;2380.80
26272;DHT22;13997;48.902;12.472;2022-07-29T23:01:37;512.20;2380.80
26272;DHT22;13997;48.902;12.472;2022-07-29T23:04:05;512.20;2380.80
26272;DHT22;13997;48.902;12.472;2022-07-29T23:06:30;512.20;2380.80
26272;DHT22;13997;48.902;12.472;2022-07-29T23:08:56;512.10;2380.80
26272;DHT22;13997;48.902;12.472;2022-07-29T23:11:21;512.10;2380.80
26272;DHT22;13997;48.902;12.472;2022-07-29T23:13:47;512.10;2380.80
26272;DHT22;13997;48.902;12.472;2022-07-29T23:16:12;512.10;2380.80
26272;DHT22;13997;48.902;12.472;2022-07-29T23:18:38;512.10;2380.80
26272;DHT22;13997;48.902;12.472;2022-07-29T23:21:05;512.10;2380.80
26272;DHT22;13997;48.902;12.472;2022-07-29T23:23:30;512.10;2380.80
26272;DHT22;13997;48.902;12.472;2022-07-29T23:25:56;512.10;2380.80
26272;DHT22;13997;48.902;12.472;2022-07-29T23:28:21;512.10;2380.80
26272;DHT22;13997;48.902;12.472;2022-07-29T23:30:47;512.20;2380.80
26272;DHT22;13997;48.902;12.472;2022-07-29T23:33:12;512.20;2380.80
26272;DHT22;13997;48.902;12.472;2022-07-29T23:35:38;512.20;2380.80
26272;DHT22;13997;48.902;12.472;2022-07-29T23:38:04;512.20;2380.80
26272;DHT22;13997;48.902;12.472;2022-07-29T23:40:29;512.10;2380.80
26272;DHT22;13997;48.902;12.472;2022-07-29T23:42:55;512.10;2380.80
26272;DHT22;13997;48.902;12.472;2022-07-29T23:45:21;512.10;2380.80
26272;DHT22;13997;48.902;12.472;2022-07-29T23:47:47;512.10;2380.80
26272;DHT22;13997;48.902;12.472;2022-07-29T23:50:12;512.10;2380.80
26272;DHT22;13997;48.902;12.472;2022-07-29T23:52:39;512.10;2380.80
26272;DHT22;13997;48.902;12.472;2022-07-29T23:55:05;512.20;2380.80
26272;DHT22;13997;48.902;12.472;2022-07-29T23:57:31;512.10;2380.80
26272;DHT22;13997;48.902;12.472;2022-07-29T23:59:56;512.10;2380.80
